Time;durP1;ratioP1;P1;durP2;ratioP2;P2;SDS_P1;SDS_P2;PMS_P1;PMS_P2;Temp;Humidity;BMP_temperature;BMP_pressure;BME280_temperature;BME280_humidity;BME280_pressure;Samples;Min_cycle;Max_cycle;Signal;HPM_P1;HPM_P2
2023/09/10 00:00:07;;;;;;;16.90;12.60;;;;;;;20.22;100.00;101694.38;5130861;27;20019;-37
2023/09/10 00:02:32;;;;;;;14.70;11.70;;;;;;;20.17;100.00;101692.44;5130851;27;20055;-37
2023/09/10 00:04:57;;;;;;;13.13;11.52;;;;;;;20.24;100.00;101692.16;5131001;28;20047;-37
2023/09/10 00:07:23;;;;;;;15.48;12.80;;;;;;;20.20;100.00;101697.38;5130834;27;20486;-37
2023/09/10 00:09:48;;;;;;;14.23;12.70;;;;;;;20.13;100.00;101685.84;5121718;27;20490;-37
2023/09/10 00:12:13;;;;;;;13.43;12.02;;;;;;;20.13;100.00;101685.03;5117274;28;20463;-37
2023/09/10 00:14:39;;;;;;;17.17;13.35;;;;;;;20.12;100.00;101697.94;5116884;28;20031;-37
2023/09/10 00:17:04;;;;;;;14.52;13.00;;;;;;;20.09;100.00;101682.00;5117400;28;20077;-37
2023/09/10 00:19:29;;;;;;;14.70;12.85;;;;;;;20.09;100.00;101678.44;5117076;28;20028;-37
2023/09/10 00:21:55;;;;;;;16.02;13.30;;;;;;;20.10;100.00;101691.88;5117096;28;20040;-37
2023/09/10 00:24:20;;;;;;;17.70;13.27;;;;;;;20.26;100.00;101688.06;5116988;28;20376;-37
2023/09/10 00:26:45;;;;;;;14.98;13.48;;;;;;;20.11;100.00;101693.56;5116469;28;20417;-37
2023/09/10 00:29:11;;;;;;;14.60;13.18;;;;;;;20.20;100.00;101685.56;5117212;28;20413;-37
2023/09/10 00:31:36;;;;;;;15.10;13.55;;;;;;;20.13;100.00;101680.38;5116900;28;20027;-37
2023/09/10 00:34:02;;;;;;;15.98;14.18;;;;;;;20.16;100.00;101688.06;5116788;28;20114;-37
2023/09/10 00:36:27;;;;;;;15.48;13.88;;;;;;;20.14;100.00;101681.19;5117063;28;20502;-37
2023/09/10 00:38:53;;;;;;;14.95;13.35;;;;;;;20.19;100.00;101686.66;5116405;28;20024;-37
2023/09/10 00:41:18;;;;;;;15.45;13.80;;;;;;;20.21;100.00;101682.56;5117205;28;20030;-37
2023/09/10 00:43:43;;;;;;;14.05;12.57;;;;;;;20.20;100.00;101680.91;5116011;28;20020;-37
2023/09/10 00:46:09;;;;;;;18.50;14.60;;;;;;;20.21;100.00;101684.50;5116294;28;20028;-37
2023/09/10 00:48:36;;;;;;;15.20;13.65;;;;;;;20.29;100.00;101679.25;5117109;28;20032;-37
2023/09/10 00:51:02;;;;;;;17.55;15.73;;;;;;;20.14;100.00;101671.03;5116142;28;20042;-37
2023/09/10 00:53:28;;;;;;;17.58;16.02;;;;;;;20.16;100.00;101679.81;5116440;28;20027;-37
2023/09/10 00:55:54;;;;;;;17.88;16.15;;;;;;;20.14;100.00;101679.25;5116645;28;20031;-37
2023/09/10 00:58:19;;;;;;;18.42;16.63;;;;;;;20.13;100.00;101679.53;5116670;28;20134;-37
2023/09/10 01:00:46;;;;;;;17.33;15.73;;;;;;;20.23;100.00;101682.28;5115674;28;20028;-37
2023/09/10 01:03:13;;;;;;;18.52;16.60;;;;;;;20.11;100.00;101682.56;5116827;28;20168;-37
2023/09/10 01:05:39;;;;;;;16.58;14.98;;;;;;;20.14;100.00;101665.53;5115594;28;20027;-37
2023/09/10 01:08:04;;;;;;;18.70;16.88;;;;;;;20.11;100.00;101663.34;5115205;28;20059;-37
2023/09/10 01:10:42;;;;;;;17.90;16.15;;;;;;;20.21;100.00;101676.25;5115577;27;20035;-37
2023/09/10 01:13:26;;;;;;;17.27;15.68;;;;;;;20.18;100.00;101668.56;5115814;28;20027;-37
2023/09/10 01:16:01;;;;;;;19.60;17.67;;;;;;;20.19;100.00;101684.75;5115993;28;20442;-37
2023/09/10 01:18:31;;;;;;;19.40;17.55;;;;;;;20.20;100.00;101675.41;5115635;28;20038;-37
2023/09/10 01:21:16;;;;;;;20.48;18.33;;;;;;;20.13;100.00;101671.31;5114546;28;20070;-37
2023/09/10 01:24:12;;;;;;;15.82;14.35;;;;;;;20.22;100.00;101662.25;5115854;28;20088;-37
2023/09/10 01:26:39;;;;;;;18.52;16.77;;;;;;;20.27;100.00;101683.38;5115813;28;20027;-37
2023/09/10 01:29:10;;;;;;;20.02;18.08;;;;;;;20.16;100.00;101679.00;5115198;28;20026;-37
2023/09/10 01:31:40;;;;;;;17.67;16.08;;;;;;;20.20;100.00;101680.91;5115727;28;20028;-37
2023/09/10 01:34:09;;;;;;;19.65;17.85;;;;;;;20.21;100.00;101677.06;5116220;28;20064;-37
2023/09/10 01:36:40;;;;;;;17.55;15.98;;;;;;;20.22;100.00;101683.38;5115333;28;20095;-37
2023/09/10 01:39:24;;;;;;;17.48;15.45;;;;;;;20.28;100.00;101683.09;5115204;28;20028;-37
2023/09/10 01:41:51;;;;;;;20.27;18.27;;;;;;;20.17;100.00;101675.16;5115190;28;20486;-37
2023/09/10 01:44:18;;;;;;;20.25;17.77;;;;;;;20.15;100.00;101683.66;5115492;28;20387;-37
2023/09/10 01:46:45;;;;;;;22.15;19.77;;;;;;;20.14;100.00;101679.25;5115179;28;20039;-37
2023/09/10 01:49:11;;;;;;;20.63;18.73;;;;;;;20.18;100.00;101688.59;5115876;28;20085;-37
2023/09/10 01:51:36;;;;;;;21.40;19.10;;;;;;;20.19;100.00;101684.75;5115587;28;20027;-37
2023/09/10 01:54:02;;;;;;;19.17;17.45;;;;;;;20.18;100.00;101688.59;5115041;28;20038;-36
2023/09/10 01:56:27;;;;;;;20.83;18.90;;;;;;;20.14;100.00;101676.50;5115195;28;20060;-37
2023/09/10 01:58:52;;;;;;;20.15;18.20;;;;;;;20.14;100.00;101693.00;5114433;28;20494;-37
2023/09/10 02:01:18;;;;;;;19.73;17.92;;;;;;;20.13;100.00;101685.03;5115159;28;20031;-36
2023/09/10 02:03:43;;;;;;;20.17;18.10;;;;;;;20.21;100.00;101692.72;5114744;28;20024;-37
2023/09/10 02:06:08;;;;;;;20.35;18.52;;;;;;;20.15;100.00;101700.13;5114836;27;20456;-37
2023/09/10 02:08:34;;;;;;;20.90;18.88;;;;;;;20.17;100.00;101697.13;5115578;28;20459;-36
2023/09/10 02:11:04;;;;;;;22.58;20.48;;;;;;;20.09;100.00;101694.91;5114422;28;20027;-36
2023/09/10 02:13:29;;;;;;;20.42;18.50;;;;;;;20.09;100.00;101698.47;5115170;28;20396;-37
2023/09/10 02:15:55;;;;;;;21.20;19.15;;;;;;;20.10;100.00;101697.38;5115409;28;20038;-36
2023/09/10 02:18:22;;;;;;;21.80;19.67;;;;;;;20.13;100.00;101694.09;5114188;28;20062;-37
2023/09/10 02:20:47;;;;;;;21.92;19.83;;;;;;;20.06;100.00;101701.78;5114742;28;20073;-36
2023/09/10 02:23:12;;;;;;;24.52;22.05;;;;;;;19.94;100.00;101698.47;5115047;28;20024;-37
2023/09/10 02:25:38;;;;;;;21.60;19.55;;;;;;;19.99;100.00;101703.97;5114328;28;20023;-36
2023/09/10 02:28:04;;;;;;;21.27;19.35;;;;;;;19.92;100.00;101693.25;5114700;28;20118;-37
2023/09/10 02:30:29;;;;;;;23.58;21.23;;;;;;;19.86;100.00;101693.50;5115171;28;20085;-37
2023/09/10 02:32:55;;;;;;;17.20;15.52;;;;;;;19.95;100.00;101689.13;5114162;28;20076;-37
2023/09/10 02:35:21;;;;;;;22.85;20.63;;;;;;;19.97;100.00;101693.28;5115068;28;20504;-37
2023/09/10 02:37:46;;;;;;;17.95;16.35;;;;;;;20.02;100.00;101689.69;5114205;28;20072;-37
2023/09/10 02:40:12;;;;;;;21.35;19.45;;;;;;;19.96;100.00;101683.38;5114162;28;20063;-37
2023/09/10 02:42:38;;;;;;;20.83;18.77;;;;;;;19.97;100.00;101701.50;5115031;28;20027;-36
2023/09/10 02:45:03;;;;;;;24.50;22.02;;;;;;;19.91;100.00;101693.50;5113817;28;20032;-36
2023/09/10 02:47:29;;;;;;;24.98;22.58;;;;;;;19.90;100.00;101694.63;5113881;28;20049;-36
2023/09/10 02:49:55;;;;;;;24.25;22.05;;;;;;;19.89;100.00;101684.75;5114132;28;20055;-36
2023/09/10 02:52:24;;;;;;;24.40;22.17;;;;;;;19.88;100.00;101683.91;5114060;28;20104;-36
2023/09/10 02:54:50;;;;;;;23.38;21.00;;;;;;;19.89;100.00;101687.50;5114003;28;20036;-36
2023/09/10 02:57:15;;;;;;;22.77;20.52;;;;;;;19.90;100.00;101697.38;5114029;28;20024;-37
2023/09/10 02:59:40;;;;;;;26.58;24.08;;;;;;;19.91;100.00;101693.50;5115014;28;20047;-37
2023/09/10 03:02:06;;;;;;;25.02;22.63;;;;;;;19.78;100.00;101673.75;5114083;28;20027;-36
2023/09/10 03:04:31;;;;;;;25.45;22.83;;;;;;;19.87;100.00;101692.44;5114287;28;20111;-37
2023/09/10 03:06:56;;;;;;;26.00;23.67;;;;;;;19.83;100.00;101694.06;5113956;28;20077;-37
2023/09/10 03:09:22;;;;;;;26.67;24.13;;;;;;;19.80;100.00;101693.50;5114258;28;20027;-37
2023/09/10 03:11:47;;;;;;;27.10;24.60;;;;;;;19.76;100.00;101699.81;5113606;28;20028;-37
2023/09/10 03:14:12;;;;;;;27.30;24.70;;;;;;;19.76;100.00;101695.16;5114395;28;20027;-36
2023/09/10 03:16:39;;;;;;;27.67;25.08;;;;;;;19.75;100.00;101684.44;5113627;28;20051;-36
2023/09/10 03:19:04;;;;;;;25.48;23.08;;;;;;;19.68;100.00;101672.94;5113745;28;20028;-36
2023/09/10 03:21:30;;;;;;;26.60;24.13;;;;;;;19.78;100.00;101698.47;5113592;28;20417;-37
2023/09/10 03:23:56;;;;;;;27.98;25.27;;;;;;;19.73;100.00;101679.25;5114291;28;20031;-36
2023/09/10 03:26:21;;;;;;;27.77;25.17;;;;;;;19.71;100.00;101670.44;5113489;28;20118;-37
2023/09/10 03:28:47;;;;;;;28.55;25.75;;;;;;;19.77;100.00;101685.84;5113722;28;20028;-36
2023/09/10 03:31:12;;;;;;;23.00;20.95;;;;;;;19.83;100.00;101675.69;5113662;28;20115;-36
2023/09/10 03:33:39;;;;;;;29.50;26.60;;;;;;;19.78;100.00;101681.16;5113943;28;20027;-36
2023/09/10 03:36:05;;;;;;;29.00;26.30;;;;;;;19.71;100.00;101672.34;5113672;28;20088;-36
2023/09/10 03:38:31;;;;;;;27.88;25.27;;;;;;;19.72;100.00;101674.03;5114605;28;20405;-36
2023/09/10 03:40:56;;;;;;;29.15;26.40;;;;;;;19.75;100.00;101677.03;5113529;28;20053;-36
2023/09/10 03:43:22;;;;;;;29.45;26.65;;;;;;;19.57;100.00;101661.09;5113922;28;20464;-37
2023/09/10 03:45:47;;;;;;;29.35;26.52;;;;;;;19.73;100.00;101679.25;5117208;28;20371;-36
2023/09/10 03:48:15;;;;;;;30.20;27.38;;;;;;;19.68;100.00;101684.72;5117480;28;20547;-37
2023/09/10 03:50:41;;;;;;;29.90;26.83;;;;;;;19.60;100.00;101668.78;5118163;28;20375;-36
2023/09/10 03:53:07;;;;;;;29.92;27.08;;;;;;;19.65;100.00;101690.75;5117366;28;20035;-37
2023/09/10 03:55:33;;;;;;;25.88;23.60;;;;;;;19.67;100.00;101676.78;5117825;28;20102;-36
2023/09/10 03:57:58;;;;;;;29.33;26.70;;;;;;;19.66;100.00;101675.09;5116595;28;20047;-36
2023/09/10 04:00:23;;;;;;;29.17;26.38;;;;;;;19.66;100.00;101681.41;5117178;28;20042;-36
2023/09/10 04:02:49;;;;;;;33.10;29.83;;;;;;;19.61;100.00;101673.16;5116880;28;20028;-36
2023/09/10 04:05:15;;;;;;;30.10;27.27;;;;;;;19.58;100.00;101668.22;5117070;28;20024;-37
2023/09/10 04:07:40;;;;;;;31.83;28.90;;;;;;;19.60;100.00;101666.03;5117067;28;20027;-36
2023/09/10 04:10:09;;;;;;;31.52;28.48;;;;;;;19.60;100.00;101665.22;5117258;28;20105;-36
2023/09/10 04:12:35;;;;;;;30.73;27.80;;;;;;;19.60;100.00;101673.44;5117832;28;20024;-37
2023/09/10 04:15:01;;;;;;;27.23;24.80;;;;;;;19.65;100.00;101663.31;5116953;28;20032;-37
2023/09/10 04:17:28;;;;;;;29.67;26.98;;;;;;;19.61;100.00;101661.38;5116796;28;20035;-37
2023/09/10 04:19:59;;;;;;;30.58;27.75;;;;;;;19.56;100.00;101667.63;5116824;28;20024;-36
2023/09/10 04:22:25;;;;;;;33.95;30.75;;;;;;;19.55;100.00;101668.75;5117422;27;20191;-36
2023/09/10 04:24:51;;;;;;;33.80;30.55;;;;;;;19.49;100.00;101656.94;5116759;28;20024;-36
2023/09/10 04:27:16;;;;;;;33.40;30.33;;;;;;;19.53;100.00;101662.72;5116682;28;20401;-36
2023/09/10 04:29:42;;;;;;;34.35;31.25;;;;;;;19.43;100.00;101659.94;5116395;28;20020;-37
2023/09/10 04:32:07;;;;;;;35.47;32.10;;;;;;;19.45;100.00;101671.47;5116891;28;20028;-37
2023/09/10 04:34:33;;;;;;;34.55;31.40;;;;;;;19.48;100.00;101670.94;5116795;28;20023;-36
2023/09/10 04:36:58;;;;;;;35.58;32.35;;;;;;;19.50;100.00;101666.00;5117216;28;20493;-36
2023/09/10 04:39:24;;;;;;;35.72;32.30;;;;;;;19.48;100.00;101673.69;5116668;28;20024;-37
2023/09/10 04:41:49;;;;;;;35.20;31.70;;;;;;;19.50;100.00;101664.06;5116707;28;20379;-37
2023/09/10 04:44:15;;;;;;;35.13;31.52;;;;;;;19.41;100.00;101653.91;5116879;28;20019;-36
2023/09/10 04:46:40;;;;;;;35.08;31.60;;;;;;;19.48;100.00;101662.72;5116895;28;20479;-36
2023/09/10 04:49:06;;;;;;;34.28;31.02;;;;;;;19.45;100.00;101661.31;5116241;28;20063;-37
2023/09/10 04:51:31;;;;;;;36.42;32.92;;;;;;;19.41;100.00;101662.94;5116438;28;20038;-37
2023/09/10 04:53:56;;;;;;;34.50;31.25;;;;;;;19.45;100.00;101674.22;5115890;28;20102;-37
2023/09/10 04:56:22;;;;;;;34.28;30.95;;;;;;;19.48;100.00;101673.69;5116104;28;20019;-37
2023/09/10 04:58:47;;;;;;;36.00;32.75;;;;;;;19.37;100.00;101669.25;5116290;28;20429;-37
2023/09/10 05:01:14;;;;;;;37.28;33.70;;;;;;;19.35;100.00;101674.19;5116021;28;20084;-37
2023/09/10 05:03:41;;;;;;;31.77;28.88;;;;;;;19.40;100.00;101676.94;5115959;28;20046;-37
2023/09/10 05:06:07;;;;;;;33.72;30.52;;;;;;;19.38;100.00;101673.66;5115894;28;20391;-37
2023/09/10 05:08:33;;;;;;;34.65;31.48;;;;;;;19.27;100.00;101665.38;5116191;28;20080;-37
2023/09/10 05:10:58;;;;;;;30.05;27.35;;;;;;;19.36;100.00;101670.34;5115495;28;20388;-37
2023/09/10 05:13:23;;;;;;;33.13;30.02;;;;;;;19.29;100.00;101674.16;5116453;28;20051;-37
2023/09/10 05:15:49;;;;;;;33.72;30.45;;;;;;;19.27;100.00;101665.38;5115409;28;20023;-37
2023/09/10 05:18:15;;;;;;;35.20;31.70;;;;;;;19.26;100.00;101676.63;5115927;28;20024;-37
2023/09/10 05:20:40;;;;;;;31.45;28.48;;;;;;;19.32;100.00;101680.19;5116197;28;20023;-37
2023/09/10 05:23:06;;;;;;;30.40;27.60;;;;;;;19.36;100.00;101686.78;5116451;28;20052;-37
2023/09/10 05:25:35;;;;;;;34.13;31.02;;;;;;;19.35;100.00;101687.88;5115780;28;20020;-37
2023/09/10 05:28:00;;;;;;;29.92;27.15;;;;;;;19.41;100.00;101684.06;5115495;28;20115;-37
2023/09/10 05:30:25;;;;;;;33.35;30.15;;;;;;;19.38;100.00;101685.44;5115117;28;20059;-37
2023/09/10 05:32:51;;;;;;;32.78;29.77;;;;;;;19.44;100.00;101683.53;5115664;28;20073;-37
2023/09/10 05:35:16;;;;;;;31.42;28.48;;;;;;;19.43;100.00;101684.63;5115322;28;20053;-37
2023/09/10 05:37:41;;;;;;;36.90;33.47;;;;;;;19.38;100.00;101688.19;5114952;28;20027;-37
2023/09/10 05:40:08;;;;;;;31.10;28.27;;;;;;;19.43;100.00;101693.69;5115006;28;20053;-37
2023/09/10 05:42:33;;;;;;;35.40;32.13;;;;;;;19.47;100.00;101688.47;5114963;28;20524;-37
2023/09/10 05:44:58;;;;;;;33.95;30.75;;;;;;;19.41;100.00;101679.41;5115497;27;20108;-37
2023/09/10 05:47:24;;;;;;;35.97;32.42;;;;;;;19.46;100.00;101697.78;5115670;28;20043;-37
2023/09/10 05:49:52;;;;;;;32.78;29.52;;;;;;;19.50;100.00;101688.75;5115587;27;20055;-37
2023/09/10 05:52:18;;;;;;;36.08;32.70;;;;;;;19.56;100.00;101703.31;5115825;28;20034;-37
2023/09/10 05:54:43;;;;;;;31.33;28.50;;;;;;;19.59;100.00;101691.81;5115172;28;20114;-37
2023/09/10 05:57:09;;;;;;;37.75;34.25;;;;;;;19.58;100.00;101692.91;5115074;27;20027;-37
2023/09/10 05:59:34;;;;;;;37.55;33.78;;;;;;;19.59;100.00;101694.53;5114451;28;20100;-37
2023/09/10 06:01:59;;;;;;;36.60;33.17;;;;;;;19.69;100.00;101708.31;5115701;28;20032;-37
2023/09/10 06:04:25;;;;;;;35.63;32.13;;;;;;;19.62;100.00;101688.56;5114554;28;20031;-37
2023/09/10 06:06:50;;;;;;;38.78;34.92;;;;;;;19.67;100.00;101699.53;5113982;28;20098;-37
2023/09/10 06:09:15;;;;;;;38.58;34.95;;;;;;;19.75;100.00;101707.22;5114666;28;20157;-37
2023/09/10 06:11:41;;;;;;;36.58;33.30;;;;;;;19.80;100.00;101707.22;5114970;28;20028;-37
2023/09/10 06:14:06;;;;;;;32.70;29.50;;;;;;;19.89;100.00;101702.03;5114633;28;20417;-37
2023/09/10 06:16:32;;;;;;;36.22;32.70;;;;;;;19.90;100.00;101705.59;5114515;28;20035;-37
2023/09/10 06:18:58;;;;;;;37.08;33.47;;;;;;;19.90;100.00;101716.56;5114165;28;20027;-37
2023/09/10 06:21:23;;;;;;;38.50;34.90;;;;;;;19.90;100.00;101703.69;5114197;28;20031;-37
2023/09/10 06:23:49;;;;;;;34.70;31.38;;;;;;;20.07;100.00;101708.91;5115213;28;20035;-37
2023/09/10 06:26:14;;;;;;;32.67;29.48;;;;;;;20.05;100.00;101711.09;5114696;28;20431;-37
2023/09/10 06:28:39;;;;;;;38.88;35.13;;;;;;;20.14;100.00;101720.44;5114875;28;20459;-37
2023/09/10 06:31:08;;;;;;;40.17;36.38;;;;;;;20.13;100.00;101713.31;5114581;28;20111;-37
2023/09/10 06:33:34;;;;;;;40.03;35.95;;;;;;;20.19;100.00;101716.88;5114288;28;20024;-37
2023/09/10 06:36:00;;;;;;;38.97;35.05;;;;;;;20.17;100.00;101708.91;5114183;28;20028;-37
2023/09/10 06:38:27;;;;;;;41.47;37.58;;;;;;;20.21;100.00;101714.69;5114425;28;20085;-37
2023/09/10 06:40:53;;;;;;;37.67;34.35;;;;;;;20.26;100.00;101728.44;5114150;28;20031;-37
2023/09/10 06:43:18;;;;;;;35.63;32.13;;;;;;;20.38;100.00;101722.66;5114153;28;20533;-37
2023/09/10 06:45:43;;;;;;;38.25;34.75;;;;;;;20.44;100.00;101718.78;5114056;28;20027;-37
2023/09/10 06:48:09;;;;;;;35.45;32.03;;;;;;;20.48;100.00;101720.75;5114383;28;20024;-37
2023/09/10 06:50:35;;;;;;;41.92;37.65;;;;;;;20.52;100.00;101734.75;5114067;28;20116;-37
2023/09/10 06:53:00;;;;;;;40.85;36.63;;;;;;;20.57;100.00;101723.75;5114619;28;20031;-37
2023/09/10 06:55:26;;;;;;;41.00;37.08;;;;;;;20.61;100.00;101727.59;5114484;28;20075;-36
2023/09/10 06:57:51;;;;;;;39.20;35.33;;;;;;;20.69;100.00;101732.56;5114620;28;20114;-36
2023/09/10 07:00:17;;;;;;;37.33;33.90;;;;;;;20.73;100.00;101730.88;5113915;28;20124;-36
2023/09/10 07:02:43;;;;;;;39.95;36.15;;;;;;;20.79;100.00;101728.97;5114205;28;20464;-36
2023/09/10 07:05:08;;;;;;;39.05;35.00;;;;;;;20.90;100.00;101727.00;5113615;28;20107;-36
2023/09/10 07:07:33;;;;;;;37.38;33.97;;;;;;;20.83;100.00;101714.34;5114806;28;20040;-36
2023/09/10 07:09:59;;;;;;;37.30;33.88;;;;;;;20.94;100.00;101728.91;5114371;28;20024;-37
2023/09/10 07:12:24;;;;;;;39.88;35.85;;;;;;;21.04;100.00;101728.06;5114267;28;20028;-36
2023/09/10 07:14:50;;;;;;;34.85;31.23;;;;;;;21.01;100.00;101723.13;5113820;28;20031;-36
2023/09/10 07:17:15;;;;;;;35.03;31.40;;;;;;;21.15;100.00;101732.41;5113732;28;20062;-37
2023/09/10 07:19:41;;;;;;;35.60;32.03;;;;;;;21.23;100.00;101731.84;5115497;28;20030;-36
2023/09/10 07:22:06;;;;;;;35.45;32.35;;;;;;;21.28;100.00;101737.34;5118467;28;20031;-36
2023/09/10 07:24:32;;;;;;;37.63;33.92;;;;;;;21.24;100.00;101713.41;5118111;28;20066;-37
2023/09/10 07:26:58;;;;;;;38.00;33.92;;;;;;;21.33;100.00;101722.75;5118388;28;20376;-36
2023/09/10 07:29:24;;;;;;;34.33;31.05;;;;;;;21.45;100.00;101730.69;5117829;28;20058;-37
2023/09/10 07:31:50;;;;;;;34.25;31.00;;;;;;;21.48;100.00;101716.38;5118340;28;20484;-36
2023/09/10 07:34:16;;;;;;;34.67;31.38;;;;;;;21.62;100.00;101741.31;5117380;28;20059;-36
2023/09/10 07:36:44;;;;;;;34.00;30.92;;;;;;;21.68;100.00;101732.75;5118215;28;20062;-37
2023/09/10 07:39:09;;;;;;;33.95;30.80;;;;;;;21.71;100.00;101723.09;5118040;28;20024;-37
2023/09/10 07:41:35;;;;;;;33.83;30.17;;;;;;;21.77;100.00;101730.25;5117584;28;20030;-37
2023/09/10 07:44:02;;;;;;;32.65;29.65;;;;;;;21.85;100.00;101729.63;5118046;28;20106;-36
2023/09/10 07:46:28;;;;;;;31.40;28.40;;;;;;;21.98;100.00;101737.25;5117497;28;20028;-36
2023/09/10 07:48:53;;;;;;;31.65;28.55;;;;;;;22.07;100.00;101740.22;5117678;28;20034;-36
2023/09/10 07:51:18;;;;;;;32.22;28.75;;;;;;;22.10;100.00;101725.84;5117111;28;20115;-36
2023/09/10 07:53:44;;;;;;;31.98;29.15;;;;;;;22.19;100.00;101742.63;5117027;28;20080;-36
2023/09/10 07:56:09;;;;;;;30.60;27.73;;;;;;;22.27;100.00;101742.84;5117622;28;20028;-36
2023/09/10 07:58:35;;;;;;;31.30;28.20;;;;;;;22.35;100.00;101731.22;5117217;28;20545;-37
2023/09/10 08:01:00;;;;;;;30.17;27.35;;;;;;;22.47;100.00;101736.34;5117582;28;20051;-37
2023/09/10 08:03:26;;;;;;;30.75;27.95;;;;;;;22.57;100.00;101739.00;5117595;28;20111;-37
2023/09/10 08:05:51;;;;;;;28.95;26.17;;;;;;;22.62;100.00;101740.88;5117380;28;20351;-37
2023/09/10 08:08:17;;;;;;;30.15;27.15;;;;;;;22.64;100.00;101738.63;5117496;28;20432;-36
2023/09/10 08:10:45;;;;;;;29.08;26.40;;;;;;;22.78;100.00;101750.63;5116728;28;20031;-36
2023/09/10 08:13:12;;;;;;;26.15;23.60;;;;;;;22.88;100.00;101756.06;5117158;28;20102;-36
2023/09/10 08:15:38;;;;;;;26.42;23.90;;;;;;;22.98;100.00;101752.38;5117038;28;20388;-36
2023/09/10 08:18:04;;;;;;;26.65;24.00;;;;;;;23.06;100.00;101757.25;5116717;28;20031;-37
2023/09/10 08:20:29;;;;;;;26.58;23.85;;;;;;;23.18;100.00;101754.13;5117213;28;20110;-37
2023/09/10 08:22:54;;;;;;;27.63;24.63;;;;;;;23.26;100.00;101742.41;5117014;28;20499;-37
2023/09/10 08:25:20;;;;;;;25.83;23.10;;;;;;;23.35;100.00;101748.09;5116739;28;20442;-36
2023/09/10 08:27:46;;;;;;;24.83;22.30;;;;;;;23.32;100.00;101726.59;5116861;28;20089;-36
2023/09/10 08:30:11;;;;;;;23.13;20.83;;;;;;;23.47;100.00;101733.88;5116355;28;20422;-36
2023/09/10 08:32:37;;;;;;;23.40;21.13;;;;;;;23.63;100.00;101746.38;5117161;27;20421;-36
2023/09/10 08:35:03;;;;;;;23.38;20.92;;;;;;;23.76;100.00;101736.53;5117201;28;20024;-36
2023/09/10 08:37:30;;;;;;;22.83;20.45;;;;;;;23.76;100.00;101731.81;5116696;28;20088;-37
2023/09/10 08:39:55;;;;;;;23.52;21.08;;;;;;;23.79;100.00;101725.72;5116380;28;20039;-37
2023/09/10 08:42:23;;;;;;;21.92;19.77;;;;;;;23.99;100.00;101735.63;5116394;28;20031;-36
2023/09/10 08:44:56;;;;;;;21.35;19.13;;;;;;;24.08;100.00;101738.53;5116042;28;20072;-36
2023/09/10 08:47:24;;;;;;;20.13;18.17;;;;;;;24.18;100.00;101741.13;5115821;28;20038;-36
2023/09/10 08:49:54;;;;;;;21.02;18.27;;;;;;;24.28;100.00;101734.63;5116031;28;20379;-37
2023/09/10 08:52:20;;;;;;;21.02;18.92;;;;;;;24.39;100.00;101738.88;5116161;28;20097;-37
2023/09/10 08:54:45;;;;;;;21.52;17.30;;;;;;;24.50;100.00;101734.00;5115967;28;20036;-37
2023/09/10 08:57:12;;;;;;;19.92;17.70;;;;;;;24.58;100.00;101736.06;5116708;28;20042;-37
2023/09/10 08:59:39;;;;;;;20.10;17.67;;;;;;;24.63;100.00;101733.22;5115935;28;20186;-37
2023/09/10 09:02:04;;;;;;;18.75;15.60;;;;;;;24.70;100.00;101717.06;5115567;28;20019;-37
2023/09/10 09:04:30;;;;;;;17.50;15.68;;;;;;;24.91;100.00;101734.06;5115832;28;20035;-37
2023/09/10 09:06:59;;;;;;;16.45;14.75;;;;;;;25.01;100.00;101744.13;5116497;28;20031;-37
2023/09/10 09:09:26;;;;;;;17.00;15.30;;;;;;;25.16;100.00;101736.34;5115733;28;20034;-37
2023/09/10 09:11:54;;;;;;;14.27;12.70;;;;;;;25.31;100.00;101737.97;5116187;28;20027;-36
2023/09/10 09:14:21;;;;;;;13.88;12.43;;;;;;;25.44;100.00;101736.34;5115559;28;20487;-37
2023/09/10 09:16:47;;;;;;;13.63;10.90;;;;;;;25.49;100.00;101722.38;5116175;28;20028;-37
2023/09/10 09:19:14;;;;;;;13.07;9.27;;;;;;;25.64;100.00;101727.56;5115365;28;20028;-37
2023/09/10 09:21:43;;;;;;;12.63;8.27;;;;;;;25.73;100.00;101722.13;5115756;28;20084;-37
2023/09/10 09:24:10;;;;;;;14.38;8.40;;;;;;;25.76;100.00;101727.06;5115931;28;20401;-37
2023/09/10 09:26:36;;;;;;;12.25;8.50;;;;;;;25.89;100.00;101719.84;5115511;28;20463;-37
2023/09/10 09:29:02;;;;;;;13.23;8.18;;;;;;;25.97;100.00;101732.13;5115386;28;20118;-37
2023/09/10 09:31:28;;;;;;;10.07;8.57;;;;;;;26.04;100.00;101715.88;5115218;28;20034;-37
2023/09/10 09:33:53;;;;;;;11.23;8.65;;;;;;;26.12;100.00;101713.19;5115571;28;20031;-37
2023/09/10 09:36:19;;;;;;;10.18;8.00;;;;;;;26.26;100.00;101726.16;5115373;28;20035;-37
2023/09/10 09:38:48;;;;;;;11.70;8.25;;;;;;;26.25;100.00;101714.22;5115798;28;20138;-37
2023/09/10 09:41:15;;;;;;;14.48;9.50;;;;;;;26.38;100.00;101731.94;5114359;28;20024;-37
2023/09/10 09:43:40;;;;;;;13.88;9.13;;;;;;;26.45;100.00;101726.81;5109313;28;20533;-37
2023/09/10 09:46:06;;;;;;;11.88;7.63;;;;;;;26.48;99.78;101722.56;5115225;28;20023;-37
2023/09/10 09:48:34;;;;;;;12.05;7.65;;;;;;;26.59;100.00;101708.09;5115136;28;20078;-37
2023/09/10 09:51:01;;;;;;;8.88;7.60;;;;;;;26.70;100.00;101703.94;5104989;27;20016;-37
2023/09/10 09:53:28;;;;;;;9.13;7.32;;;;;;;26.73;100.00;101705.22;5094272;28;20028;-37
2023/09/10 09:55:59;;;;;;;11.07;7.00;;;;;;;26.82;100.00;101691.41;5094882;28;20368;-36
2023/09/10 09:58:25;;;;;;;11.77;7.65;;;;;;;26.98;98.60;101702.88;5094284;28;20140;-37
2023/09/10 10:00:51;;;;;;;9.75;6.55;;;;;;;27.14;96.92;101709.66;5095211;28;20417;-37
2023/09/10 10:03:18;;;;;;;10.13;5.55;;;;;;;27.24;96.58;101701.03;5094634;28;20452;-37
2023/09/10 10:05:46;;;;;;;10.40;6.50;;;;;;;27.29;96.70;101703.66;5095341;28;20031;-37
2023/09/10 10:08:13;;;;;;;12.82;7.15;;;;;;;27.45;97.06;101699.25;5094808;28;20036;-37
2023/09/10 10:10:46;;;;;;;10.68;7.18;;;;;;;27.42;96.58;101685.22;5094301;28;20039;-37
2023/09/10 10:13:14;;;;;;;9.40;5.60;;;;;;;27.57;95.98;101692.25;5093904;28;20032;-35
2023/09/10 10:15:40;;;;;;;8.20;5.63;;;;;;;27.59;93.15;101692.75;5093724;28;20028;-37
2023/09/10 10:18:06;;;;;;;13.25;6.03;;;;;;;27.74;92.51;101691.47;5094586;28;20039;-38
2023/09/10 10:20:32;;;;;;;10.68;5.60;;;;;;;27.86;92.18;101691.63;5093960;28;20031;-38
2023/09/10 10:22:58;;;;;;;13.90;6.07;;;;;;;27.88;91.08;101686.56;5093606;28;20028;-38
2023/09/10 10:25:24;;;;;;;9.65;5.93;;;;;;;27.98;93.19;101689.81;5093849;28;20108;-36
2023/09/10 10:27:51;;;;;;;11.07;6.35;;;;;;;28.01;94.98;101684.75;5093879;28;20460;-36
2023/09/10 10:30:16;;;;;;;11.80;6.00;;;;;;;28.16;95.60;101684.25;5093742;28;20024;-36
2023/09/10 10:32:45;;;;;;;7.68;5.63;;;;;;;28.19;95.07;101683.56;5094301;28;20361;-36
2023/09/10 10:35:10;;;;;;;11.20;5.50;;;;;;;28.30;96.65;101676.50;5093717;28;20157;-36
2023/09/10 10:37:52;;;;;;;9.23;5.47;;;;;;;28.34;95.72;101688.63;5094686;28;20114;-36
2023/09/10 10:40:19;;;;;;;8.68;5.10;;;;;;;28.39;94.94;101680.13;5094278;28;20070;-37
2023/09/10 10:42:50;;;;;;;9.95;5.50;;;;;;;28.33;94.56;101670.28;5093934;28;20084;-37
2023/09/10 10:45:17;;;;;;;13.98;4.75;;;;;;;28.46;91.02;101677.66;5093866;28;20415;-37
2023/09/10 10:47:45;;;;;;;7.55;5.20;;;;;;;28.55;91.89;101676.78;5093327;28;20032;-37
2023/09/10 10:50:11;;;;;;;8.50;5.32;;;;;;;28.65;89.21;101673.66;5093847;28;20469;-37
2023/09/10 10:52:58;;;;;;;8.77;4.78;;;;;;;28.81;90.72;101679.47;5094290;28;20417;-37
2023/09/10 10:55:26;;;;;;;7.47;4.32;;;;;;;28.87;82.68;101678.94;5093899;28;20073;-37
2023/09/10 10:57:53;;;;;;;10.45;4.40;;;;;;;29.06;83.61;101669.38;5093650;28;20346;-37
2023/09/10 11:00:19;;;;;;;9.70;4.22;;;;;;;29.10;82.22;101673.13;5093880;28;20428;-37